sensor_id;sensor_type;location;lat;lon;timestamp;P1;durP1;ratioP1;P2;durP2;ratioP2
52878;SDS011;38747;53.140;6.498;2023-08-07T00:01:47;4.30;;;1.50;;
52878;SDS011;38747;53.140;6.498;2023-08-07T00:04:13;4.85;;;1.60;;
52878;SDS011;38747;53.140;6.498;2023-08-07T00:06:38;4.93;;;1.50;;
52878;SDS011;38747;53.140;6.498;2023-08-07T00:09:04;7.65;;;1.67;;
52878;SDS011;38747;53.140;6.498;2023-08-07T00:11:29;5.73;;;1.63;;
52878;SDS011;38747;53.140;6.498;2023-08-07T00:13:57;6.57;;;1.77;;
52878;SDS011;38747;53.140;6.498;2023-08-07T00:16:23;5.68;;;1.77;;
52878;SDS011;38747;53.140;6.498;2023-08-07T00:18:49;4.03;;;1.40;;
52878;SDS011;38747;53.140;6.498;2023-08-07T00:21:14;6.80;;;1.50;;
52878;SDS011;38747;53.140;6.498;2023-08-07T00:23:40;6.53;;;1.80;;
52878;SDS011;38747;53.140;6.498;2023-08-07T00:26:05;5.87;;;1.77;;
52878;SDS011;38747;53.140;6.498;2023-08-07T00:28:31;6.50;;;1.63;;
52878;SDS011;38747;53.140;6.498;2023-08-07T00:30:58;4.53;;;1.40;;
52878;SDS011;38747;53.140;6.498;2023-08-07T00:33:23;5.07;;;1.60;;
52878;SDS011;38747;53.140;6.498;2023-08-07T00:35:49;5.03;;;1.40;;
52878;SDS011;38747;53.140;6.498;2023-08-07T00:38:15;3.58;;;1.25;;
52878;SDS011;38747;53.140;6.498;2023-08-07T00:40:40;4.43;;;1.33;;
52878;SDS011;38747;53.140;6.498;2023-08-07T00:43:07;3.90;;;1.38;;
52878;SDS011;38747;53.140;6.498;2023-08-07T00:45:34;3.93;;;1.27;;
52878;SDS011;38747;53.140;6.498;2023-08-07T00:48:03;4.03;;;1.35;;
52878;SDS011;38747;53.140;6.498;2023-08-07T00:50:29;5.55;;;1.98;;
52878;SDS011;38747;53.140;6.498;2023-08-07T00:52:55;6.15;;;1.58;;
52878;SDS011;38747;53.140;6.498;2023-08-07T00:55:21;5.63;;;1.38;;
52878;SDS011;38747;53.140;6.498;2023-08-07T00:57:47;4.63;;;1.50;;
52878;SDS011;38747;53.140;6.498;2023-08-07T01:00:13;4.88;;;1.52;;
52878;SDS011;38747;53.140;6.498;2023-08-07T01:02:41;3.67;;;1.30;;
52878;SDS011;38747;53.140;6.498;2023-08-07T01:05:07;4.60;;;1.50;;
52878;SDS011;38747;53.140;6.498;2023-08-07T01:07:32;5.57;;;1.60;;
52878;SDS011;38747;53.140;6.498;2023-08-07T01:09:58;4.38;;;1.60;;
52878;SDS011;38747;53.140;6.498;2023-08-07T01:12:32;3.83;;;1.33;;
52878;SDS011;38747;53.140;6.498;2023-08-07T01:15:19;5.57;;;1.42;;
52878;SDS011;38747;53.140;6.498;2023-08-07T01:17:50;3.72;;;1.35;;
52878;SDS011;38747;53.140;6.498;2023-08-07T01:20:18;4.35;;;1.52;;
52878;SDS011;38747;53.140;6.498;2023-08-07T01:22:43;4.47;;;1.40;;
52878;SDS011;38747;53.140;6.498;2023-08-07T01:25:09;4.65;;;1.40;;
52878;SDS011;38747;53.140;6.498;2023-08-07T01:35:12;4.57;;;1.50;;
52878;SDS011;38747;53.140;6.498;2023-08-07T01:37:40;3.80;;;1.40;;
52878;SDS011;38747;53.140;6.498;2023-08-07T01:40:08;5.88;;;1.50;;
52878;SDS011;38747;53.140;6.498;2023-08-07T01:42:35;5.75;;;1.50;;
52878;SDS011;38747;53.140;6.498;2023-08-07T01:45:01;5.03;;;1.60;;
52878;SDS011;38747;53.140;6.498;2023-08-07T01:47:27;4.30;;;1.50;;
52878;SDS011;38747;53.140;6.498;2023-08-07T01:49:53;4.97;;;1.67;;
52878;SDS011;38747;53.140;6.498;2023-08-07T01:52:19;4.27;;;1.50;;
52878;SDS011;38747;53.140;6.498;2023-08-07T01:54:45;6.35;;;1.50;;
52878;SDS011;38747;53.140;6.498;2023-08-07T01:57:11;4.57;;;1.60;;
52878;SDS011;38747;53.140;6.498;2023-08-07T01:59:37;4.97;;;1.97;;
52878;SDS011;38747;53.140;6.498;2023-08-07T02:02:02;5.67;;;1.70;;
52878;SDS011;38747;53.140;6.498;2023-08-07T02:04:29;6.22;;;1.67;;
52878;SDS011;38747;53.140;6.498;2023-08-07T02:06:54;6.38;;;1.67;;
52878;SDS011;38747;53.140;6.498;2023-08-07T02:09:20;4.67;;;1.40;;
52878;SDS011;38747;53.140;6.498;2023-08-07T02:11:46;5.38;;;1.60;;
52878;SDS011;38747;53.140;6.498;2023-08-07T02:14:11;6.77;;;1.87;;
52878;SDS011;38747;53.140;6.498;2023-08-07T02:16:37;6.70;;;1.40;;
52878;SDS011;38747;53.140;6.498;2023-08-07T02:19:03;6.10;;;1.57;;
52878;SDS011;38747;53.140;6.498;2023-08-07T02:21:28;6.60;;;1.50;;
52878;SDS011;38747;53.140;6.498;2023-08-07T02:23:54;5.50;;;1.57;;
52878;SDS011;38747;53.140;6.498;2023-08-07T02:26:19;8.43;;;2.50;;
52878;SDS011;38747;53.140;6.498;2023-08-07T02:28:45;6.77;;;1.50;;
52878;SDS011;38747;53.140;6.498;2023-08-07T02:31:11;6.27;;;1.73;;
52878;SDS011;38747;53.140;6.498;2023-08-07T02:33:36;5.38;;;1.52;;
52878;SDS011;38747;53.140;6.498;2023-08-07T02:36:02;5.90;;;1.67;;
52878;SDS011;38747;53.140;6.498;2023-08-07T02:38:28;7.25;;;1.63;;
52878;SDS011;38747;53.140;6.498;2023-08-07T02:40:53;7.37;;;1.40;;
52878;SDS011;38747;53.140;6.498;2023-08-07T02:43:19;6.53;;;1.40;;
52878;SDS011;38747;53.140;6.498;2023-08-07T02:45:44;7.90;;;1.60;;
52878;SDS011;38747;53.140;6.498;2023-08-07T02:48:10;7.53;;;1.53;;
52878;SDS011;38747;53.140;6.498;2023-08-07T02:50:36;5.75;;;1.52;;
52878;SDS011;38747;53.140;6.498;2023-08-07T02:53:01;5.23;;;1.63;;
52878;SDS011;38747;53.140;6.498;2023-08-07T02:55:27;7.22;;;1.58;;
52878;SDS011;38747;53.140;6.498;2023-08-07T02:57:53;8.05;;;1.40;;
52878;SDS011;38747;53.140;6.498;2023-08-07T03:00:19;7.57;;;1.63;;
52878;SDS011;38747;53.140;6.498;2023-08-07T03:02:44;7.25;;;1.50;;
52878;SDS011;38747;53.140;6.498;2023-08-07T03:05:10;6.40;;;1.70;;
52878;SDS011;38747;53.140;6.498;2023-08-07T03:07:36;6.07;;;1.52;;
52878;SDS011;38747;53.140;6.498;2023-08-07T03:10:02;8.57;;;1.70;;
52878;SDS011;38747;53.140;6.498;2023-08-07T03:12:29;7.55;;;1.60;;
52878;SDS011;38747;53.140;6.498;2023-08-07T03:14:54;12.07;;;2.17;;
52878;SDS011;38747;53.140;6.498;2023-08-07T03:17:20;6.68;;;1.80;;
52878;SDS011;38747;53.140;6.498;2023-08-07T03:19:46;5.77;;;1.43;;
52878;SDS011;38747;53.140;6.498;2023-08-07T03:22:12;6.47;;;1.92;;
52878;SDS011;38747;53.140;6.498;2023-08-07T03:24:37;8.00;;;2.10;;
52878;SDS011;38747;53.140;6.498;2023-08-07T03:27:03;5.47;;;1.60;;
52878;SDS011;38747;53.140;6.498;2023-08-07T03:29:29;7.07;;;1.65;;
52878;SDS011;38747;53.140;6.498;2023-08-07T03:31:55;10.30;;;2.13;;
52878;SDS011;38747;53.140;6.498;2023-08-07T03:34:21;5.57;;;1.63;;
52878;SDS011;38747;53.140;6.498;2023-08-07T03:36:47;8.02;;;1.67;;
52878;SDS011;38747;53.140;6.498;2023-08-07T03:39:12;5.87;;;1.60;;
52878;SDS011;38747;53.140;6.498;2023-08-07T03:41:38;8.10;;;1.77;;
52878;SDS011;38747;53.140;6.498;2023-08-07T03:44:04;8.13;;;2.42;;
52878;SDS011;38747;53.140;6.498;2023-08-07T03:46:30;5.37;;;1.53;;
52878;SDS011;38747;53.140;6.498;2023-08-07T03:48:56;7.38;;;1.48;;
52878;SDS011;38747;53.140;6.498;2023-08-07T03:51:21;6.40;;;1.60;;
52878;SDS011;38747;53.140;6.498;2023-08-07T03:53:47;9.30;;;1.88;;
52878;SDS011;38747;53.140;6.498;2023-08-07T03:56:13;5.00;;;1.60;;
52878;SDS011;38747;53.140;6.498;2023-08-07T03:58:38;7.88;;;1.88;;
52878;SDS011;38747;53.140;6.498;2023-08-07T04:01:04;7.33;;;1.80;;
52878;SDS011;38747;53.140;6.498;2023-08-07T04:03:30;6.43;;;1.60;;
52878;SDS011;38747;53.140;6.498;2023-08-07T04:05:55;5.47;;;1.60;;
52878;SDS011;38747;53.140;6.498;2023-08-07T04:08:21;5.40;;;1.80;;
52878;SDS011;38747;53.140;6.498;2023-08-07T04:11:03;6.22;;;1.90;;
52878;SDS011;38747;53.140;6.498;2023-08-07T04:13:30;9.23;;;1.83;;
52878;SDS011;38747;53.140;6.498;2023-08-07T04:15:56;7.38;;;1.70;;
52878;SDS011;38747;53.140;6.498;2023-08-07T04:18:22;8.00;;;1.70;;
52878;SDS011;38747;53.140;6.498;2023-08-07T04:20:57;10.43;;;2.10;;
52878;SDS011;38747;53.140;6.498;2023-08-07T04:23:23;8.93;;;1.90;;
52878;SDS011;38747;53.140;6.498;2023-08-07T04:25:49;8.65;;;2.03;;
52878;SDS011;38747;53.140;6.498;2023-08-07T04:28:15;7.38;;;1.83;;
52878;SDS011;38747;53.140;6.498;2023-08-07T04:30:42;6.87;;;1.77;;
52878;SDS011;38747;53.140;6.498;2023-08-07T04:33:08;11.55;;;2.25;;
52878;SDS011;38747;53.140;6.498;2023-08-07T04:35:34;11.88;;;2.30;;
52878;SDS011;38747;53.140;6.498;2023-08-07T04:38:00;8.03;;;2.20;;
52878;SDS011;38747;53.140;6.498;2023-08-07T04:40:27;9.95;;;1.80;;
52878;SDS011;38747;53.140;6.498;2023-08-07T04:42:53;7.63;;;1.83;;
52878;SDS011;38747;53.140;6.498;2023-08-07T04:45:19;12.70;;;2.50;;
52878;SDS011;38747;53.140;6.498;2023-08-07T04:47:45;12.80;;;2.67;;
52878;SDS011;38747;53.140;6.498;2023-08-07T04:50:11;14.80;;;2.25;;
52878;SDS011;38747;53.140;6.498;2023-08-07T04:52:36;13.67;;;2.17;;
52878;SDS011;38747;53.140;6.498;2023-08-07T04:55:02;10.13;;;2.10;;
52878;SDS011;38747;53.140;6.498;2023-08-07T04:57:28;10.50;;;1.90;;
52878;SDS011;38747;53.140;6.498;2023-08-07T04:59:53;8.57;;;2.00;;
52878;SDS011;38747;53.140;6.498;2023-08-07T05:02:19;7.30;;;1.73;;
52878;SDS011;38747;53.140;6.498;2023-08-07T05:04:45;6.88;;;1.60;;
52878;SDS011;38747;53.140;6.498;2023-08-07T05:07:11;10.60;;;2.10;;
52878;SDS011;38747;53.140;6.498;2023-08-07T05:09:37;6.25;;;2.00;;
52878;SDS011;38747;53.140;6.498;2023-08-07T05:12:03;9.70;;;2.20;;
52878;SDS011;38747;53.140;6.498;2023-08-07T05:14:30;8.02;;;2.05;;
52878;SDS011;38747;53.140;6.498;2023-08-07T05:16:56;13.20;;;2.20;;
52878;SDS011;38747;53.140;6.498;2023-08-07T05:19:21;6.80;;;1.92;;
52878;SDS011;38747;53.140;6.498;2023-08-07T05:21:48;11.93;;;2.30;;
52878;SDS011;38747;53.140;6.498;2023-08-07T05:24:16;10.95;;;2.03;;
52878;SDS011;38747;53.140;6.498;2023-08-07T05:26:44;10.93;;;2.28;;
52878;SDS011;38747;53.140;6.498;2023-08-07T05:29:10;10.68;;;2.40;;
52878;SDS011;38747;53.140;6.498;2023-08-07T05:31:36;11.60;;;2.60;;
52878;SDS011;38747;53.140;6.498;2023-08-07T05:34:02;10.30;;;2.17;;
52878;SDS011;38747;53.140;6.498;2023-08-07T05:36:28;9.67;;;2.43;;
52878;SDS011;38747;53.140;6.498;2023-08-07T05:38:55;9.93;;;2.13;;
52878;SDS011;38747;53.140;6.498;2023-08-07T05:41:20;12.38;;;2.28;;
52878;SDS011;38747;53.140;6.498;2023-08-07T05:43:46;12.37;;;1.90;;
52878;SDS011;38747;53.140;6.498;2023-08-07T05:46:12;11.27;;;2.75;;
52878;SDS011;38747;53.140;6.498;2023-08-07T05:48:37;17.83;;;2.43;;
52878;SDS011;38747;53.140;6.498;2023-08-07T05:51:03;11.27;;;2.27;;
52878;SDS011;38747;53.140;6.498;2023-08-07T05:53:29;12.80;;;2.70;;
52878;SDS011;38747;53.140;6.498;2023-08-07T05:55:55;10.55;;;2.50;;
52878;SDS011;38747;53.140;6.498;2023-08-07T05:58:20;10.47;;;1.90;;
52878;SDS011;38747;53.140;6.498;2023-08-07T06:00:46;9.50;;;2.13;;
52878;SDS011;38747;53.140;6.498;2023-08-07T06:03:12;7.22;;;1.95;;
52878;SDS011;38747;53.140;6.498;2023-08-07T06:05:38;8.30;;;1.80;;
52878;SDS011;38747;53.140;6.498;2023-08-07T06:08:04;10.80;;;1.80;;
52878;SDS011;38747;53.140;6.498;2023-08-07T06:10:29;24.97;;;2.23;;
52878;SDS011;38747;53.140;6.498;2023-08-07T06:12:55;9.68;;;2.08;;
52878;SDS011;38747;53.140;6.498;2023-08-07T06:15:20;8.73;;;2.10;;
52878;SDS011;38747;53.140;6.498;2023-08-07T06:17:46;8.40;;;2.00;;
52878;SDS011;38747;53.140;6.498;2023-08-07T06:20:12;8.00;;;1.83;;
52878;SDS011;38747;53.140;6.498;2023-08-07T06:22:39;13.27;;;2.42;;
52878;SDS011;38747;53.140;6.498;2023-08-07T06:25:05;7.28;;;1.70;;
52878;SDS011;38747;53.140;6.498;2023-08-07T06:27:32;11.65;;;1.83;;
52878;SDS011;38747;53.140;6.498;2023-08-07T06:29:57;10.43;;;1.90;;
52878;SDS011;38747;53.140;6.498;2023-08-07T06:32:24;11.98;;;2.22;;
52878;SDS011;38747;53.140;6.498;2023-08-07T06:34:50;7.30;;;1.85;;
52878;SDS011;38747;53.140;6.498;2023-08-07T06:37:16;9.63;;;2.10;;
52878;SDS011;38747;53.140;6.498;2023-08-07T06:39:41;12.00;;;1.70;;
52878;SDS011;38747;53.140;6.498;2023-08-07T06:42:07;8.97;;;1.90;;
52878;SDS011;38747;53.140;6.498;2023-08-07T06:44:33;8.43;;;2.25;;
52878;SDS011;38747;53.140;6.498;2023-08-07T06:46:58;9.27;;;1.77;;
52878;SDS011;38747;53.140;6.498;2023-08-07T06:49:24;8.40;;;1.65;;
52878;SDS011;38747;53.140;6.498;2023-08-07T06:51:50;8.67;;;1.70;;
52878;SDS011;38747;53.140;6.498;2023-08-07T06:54:15;7.35;;;1.73;;
52878;SDS011;38747;53.140;6.498;2023-08-07T06:56:41;8.37;;;1.80;;
52878;SDS011;38747;53.140;6.498;2023-08-07T06:59:08;7.97;;;1.73;;
52878;SDS011;38747;53.140;6.498;2023-08-07T07:01:34;7.47;;;1.50;;
52878;SDS011;38747;53.140;6.498;2023-08-07T07:03:59;8.68;;;1.80;;
52878;SDS011;38747;53.140;6.498;2023-08-07T07:06:25;7.20;;;1.70;;
52878;SDS011;38747;53.140;6.498;2023-08-07T07:08:51;6.35;;;1.70;;
52878;SDS011;38747;53.140;6.498;2023-08-07T07:11:19;8.32;;;1.48;;
52878;SDS011;38747;53.140;6.498;2023-08-07T07:13:49;9.60;;;1.63;;
52878;SDS011;38747;53.140;6.498;2023-08-07T07:16:16;6.40;;;1.30;;
52878;SDS011;38747;53.140;6.498;2023-08-07T07:18:49;8.10;;;1.40;;
52878;SDS011;38747;53.140;6.498;2023-08-07T07:21:16;7.20;;;1.33;;
52878;SDS011;38747;53.140;6.498;2023-08-07T07:23:42;9.25;;;1.77;;
52878;SDS011;38747;53.140;6.498;2023-08-07T07:26:07;6.57;;;1.20;;
52878;SDS011;38747;53.140;6.498;2023-08-07T07:28:33;8.30;;;1.57;;
52878;SDS011;38747;53.140;6.498;2023-08-07T07:30:58;7.22;;;1.80;;
52878;SDS011;38747;53.140;6.498;2023-08-07T07:33:24;8.50;;;1.80;;
52878;SDS011;38747;53.140;6.498;2023-08-07T07:35:50;9.05;;;1.77;;
52878;SDS011;38747;53.140;6.498;2023-08-07T07:38:16;10.27;;;2.03;;
52878;SDS011;38747;53.140;6.498;2023-08-07T07:40:41;9.97;;;1.70;;
52878;SDS011;38747;53.140;6.498;2023-08-07T07:43:07;9.77;;;2.17;;
52878;SDS011;38747;53.140;6.498;2023-08-07T07:45:33;11.40;;;1.90;;
52878;SDS011;38747;53.140;6.498;2023-08-07T07:48:00;7.07;;;1.60;;
52878;SDS011;38747;53.140;6.498;2023-08-07T07:50:27;5.80;;;1.90;;
52878;SDS011;38747;53.140;6.498;2023-08-07T07:52:52;7.27;;;1.90;;
52878;SDS011;38747;53.140;6.498;2023-08-07T07:55:18;8.57;;;2.10;;
52878;SDS011;38747;53.140;6.498;2023-08-07T07:57:44;8.13;;;1.90;;
52878;SDS011;38747;53.140;6.498;2023-08-07T08:00:09;12.25;;;2.03;;
52878;SDS011;38747;53.140;6.498;2023-08-07T08:02:37;5.87;;;1.63;;
52878;SDS011;38747;53.140;6.498;2023-08-07T08:05:02;9.75;;;1.85;;
52878;SDS011;38747;53.140;6.498;2023-08-07T08:07:28;8.45;;;2.15;;
52878;SDS011;38747;53.140;6.498;2023-08-07T08:09:54;7.73;;;2.13;;
52878;SDS011;38747;53.140;6.498;2023-08-07T08:12:21;7.20;;;2.05;;
52878;SDS011;38747;53.140;6.498;2023-08-07T08:14:47;8.77;;;2.00;;
52878;SDS011;38747;53.140;6.498;2023-08-07T08:17:13;9.18;;;1.90;;
52878;SDS011;38747;53.140;6.498;2023-08-07T08:19:39;7.53;;;2.00;;
52878;SDS011;38747;53.140;6.498;2023-08-07T08:22:04;10.23;;;2.00;;
52878;SDS011;38747;53.140;6.498;2023-08-07T08:24:30;7.35;;;1.80;;
52878;SDS011;38747;53.140;6.498;2023-08-07T08:26:56;12.75;;;2.17;;
52878;SDS011;38747;53.140;6.498;2023-08-07T08:29:22;5.93;;;1.80;;
52878;SDS011;38747;53.140;6.498;2023-08-07T08:31:48;7.40;;;1.80;;
52878;SDS011;38747;53.140;6.498;2023-08-07T08:34:14;11.40;;;2.47;;
52878;SDS011;38747;53.140;6.498;2023-08-07T08:36:39;7.70;;;2.00;;
52878;SDS011;38747;53.140;6.498;2023-08-07T08:39:05;10.63;;;2.17;;
52878;SDS011;38747;53.140;6.498;2023-08-07T08:41:30;7.47;;;2.00;;
52878;SDS011;38747;53.140;6.498;2023-08-07T08:43:57;6.50;;;1.88;;
52878;SDS011;38747;53.140;6.498;2023-08-07T08:46:24;9.45;;;2.20;;
52878;SDS011;38747;53.140;6.498;2023-08-07T08:48:55;9.23;;;1.73;;
52878;SDS011;38747;53.140;6.498;2023-08-07T08:51:22;13.68;;;2.60;;
52878;SDS011;38747;53.140;6.498;2023-08-07T08:53:53;7.20;;;1.80;;
52878;SDS011;38747;53.140;6.498;2023-08-07T08:56:21;9.00;;;1.50;;
52878;SDS011;38747;53.140;6.498;2023-08-07T08:58:48;7.50;;;1.63;;
52878;SDS011;38747;53.140;6.498;2023-08-07T09:01:16;7.33;;;1.43;;
52878;SDS011;38747;53.140;6.498;2023-08-07T09:03:47;8.88;;;1.63;;
52878;SDS011;38747;53.140;6.498;2023-08-07T09:06:13;6.47;;;1.85;;
52878;SDS011;38747;53.140;6.498;2023-08-07T09:08:42;7.55;;;1.52;;
52878;SDS011;38747;53.140;6.498;2023-08-07T09:11:08;8.57;;;2.15;;
52878;SDS011;38747;53.140;6.498;2023-08-07T09:13:39;5.23;;;1.30;;
52878;SDS011;38747;53.140;6.498;2023-08-07T09:16:07;7.22;;;1.48;;
52878;SDS011;38747;53.140;6.498;2023-08-07T09:18:36;6.40;;;1.60;;
52878;SDS011;38747;53.140;6.498;2023-08-07T09:21:02;9.25;;;1.63;;
52878;SDS011;38747;53.140;6.498;2023-08-07T09:23:28;9.70;;;1.63;;
52878;SDS011;38747;53.140;6.498;2023-08-07T09:26:00;7.22;;;1.30;;
52878;SDS011;38747;53.140;6.498;2023-08-07T09:28:28;7.72;;;1.88;;
52878;SDS011;38747;53.140;6.498;2023-08-07T09:30:54;7.20;;;1.30;;
52878;SDS011;38747;53.140;6.498;2023-08-07T09:33:27;5.57;;;1.17;;
52878;SDS011;38747;53.140;6.498;2023-08-07T09:36:01;6.57;;;1.65;;
52878;SDS011;38747;53.140;6.498;2023-08-07T09:38:28;9.45;;;1.92;;
52878;SDS011;38747;53.140;6.498;2023-08-07T09:40:57;6.05;;;1.58;;
52878;SDS011;38747;53.140;6.498;2023-08-07T09:43:23;5.27;;;1.70;;
52878;SDS011;38747;53.140;6.498;2023-08-07T09:45:49;11.55;;;1.90;;
52878;SDS011;38747;53.140;6.498;2023-08-07T09:48:22;8.90;;;1.48;;
52878;SDS011;38747;53.140;6.498;2023-08-07T09:50:50;6.55;;;1.30;;
52878;SDS011;38747;53.140;6.498;2023-08-07T09:53:15;7.87;;;1.50;;
52878;SDS011;38747;53.140;6.498;2023-08-07T09:55:41;10.00;;;1.65;;
52878;SDS011;38747;53.140;6.498;2023-08-07T09:58:08;10.83;;;1.80;;
52878;SDS011;38747;53.140;6.498;2023-08-07T10:00:37;13.75;;;1.85;;
52878;SDS011;38747;53.140;6.498;2023-08-07T10:03:02;7.53;;;1.60;;
52878;SDS011;38747;53.140;6.498;2023-08-07T10:05:29;6.03;;;1.30;;
52878;SDS011;38747;53.140;6.498;2023-08-07T10:07:55;6.53;;;1.63;;
52878;SDS011;38747;53.140;6.498;2023-08-07T10:10:22;7.22;;;1.60;;
52878;SDS011;38747;53.140;6.498;2023-08-07T10:12:50;6.10;;;1.20;;
52878;SDS011;38747;53.140;6.498;2023-08-07T10:15:17;7.72;;;1.65;;
52878;SDS011;38747;53.140;6.498;2023-08-07T10:17:44;6.07;;;1.40;;
52878;SDS011;38747;53.140;6.498;2023-08-07T10:20:10;9.18;;;1.90;;
52878;SDS011;38747;53.140;6.498;2023-08-07T10:22:38;8.75;;;1.90;;
52878;SDS011;38747;53.140;6.498;2023-08-07T10:25:05;8.30;;;1.60;;
52878;SDS011;38747;53.140;6.498;2023-08-07T10:27:33;10.95;;;1.30;;
52878;SDS011;38747;53.140;6.498;2023-08-07T10:30:02;7.03;;;1.30;;
52878;SDS011;38747;53.140;6.498;2023-08-07T10:32:32;7.00;;;1.80;;
52878;SDS011;38747;53.140;6.498;2023-08-07T10:34:58;6.90;;;1.50;;
52878;SDS011;38747;53.140;6.498;2023-08-07T10:37:32;8.27;;;1.60;;
52878;SDS011;38747;53.140;6.498;2023-08-07T10:40:07;7.40;;;1.35;;
52878;SDS011;38747;53.140;6.498;2023-08-07T10:45:35;6.20;;;1.50;;
52878;SDS011;38747;53.140;6.498;2023-08-07T10:50:31;7.13;;;1.47;;
52878;SDS011;38747;53.140;6.498;2023-08-07T10:53:01;6.93;;;1.50;;
52878;SDS011;38747;53.140;6.498;2023-08-07T10:55:46;7.15;;;1.30;;
52878;SDS011;38747;53.140;6.498;2023-08-07T10:58:25;3.97;;;1.10;;
52878;SDS011;38747;53.140;6.498;2023-08-07T11:04:13;4.77;;;1.20;;
52878;SDS011;38747;53.140;6.498;2023-08-07T11:06:40;3.38;;;1.02;;
52878;SDS011;38747;53.140;6.498;2023-08-07T11:09:07;5.70;;;1.00;;
52878;SDS011;38747;53.140;6.498;2023-08-07T11:11:37;5.15;;;1.23;;
52878;SDS011;38747;53.140;6.498;2023-08-07T11:14:07;3.95;;;1.05;;
52878;SDS011;38747;53.140;6.498;2023-08-07T11:16:37;5.77;;;1.20;;
52878;SDS011;38747;53.140;6.498;2023-08-07T11:19:03;6.22;;;1.10;;
52878;SDS011;38747;53.140;6.498;2023-08-07T11:21:33;5.03;;;1.30;;
52878;SDS011;38747;53.140;6.498;2023-08-07T11:23:59;5.45;;;1.48;;
52878;SDS011;38747;53.140;6.498;2023-08-07T11:26:25;4.90;;;1.10;;
52878;SDS011;38747;53.140;6.498;2023-08-07T11:28:53;6.18;;;1.25;;
52878;SDS011;38747;53.140;6.498;2023-08-07T11:31:19;6.93;;;1.40;;
52878;SDS011;38747;53.140;6.498;2023-08-07T11:33:45;5.72;;;1.65;;
52878;SDS011;38747;53.140;6.498;2023-08-07T11:36:14;5.93;;;1.30;;
52878;SDS011;38747;53.140;6.498;2023-08-07T11:38:40;6.85;;;1.48;;
52878;SDS011;38747;53.140;6.498;2023-08-07T11:41:10;7.93;;;1.50;;
52878;SDS011;38747;53.140;6.498;2023-08-07T11:43:37;5.45;;;1.33;;
52878;SDS011;38747;53.140;6.498;2023-08-07T11:46:04;6.72;;;1.67;;
52878;SDS011;38747;53.140;6.498;2023-08-07T11:48:35;7.50;;;1.83;;
52878;SDS011;38747;53.140;6.498;2023-08-07T11:51:03;7.85;;;1.50;;
52878;SDS011;38747;53.140;6.498;2023-08-07T11:53:33;10.65;;;2.03;;
52878;SDS011;38747;53.140;6.498;2023-08-07T11:56:04;8.55;;;1.42;;
52878;SDS011;38747;53.140;6.498;2023-08-07T11:58:46;6.90;;;1.65;;
52878;SDS011;38747;53.140;6.498;2023-08-07T12:01:20;7.47;;;2.37;;
52878;SDS011;38747;53.140;6.498;2023-08-07T12:03:57;5.05;;;1.45;;
52878;SDS011;38747;53.140;6.498;2023-08-07T12:06:36;6.35;;;1.40;;
52878;SDS011;38747;53.140;6.498;2023-08-07T12:09:07;5.40;;;1.30;;
52878;SDS011;38747;53.140;6.498;2023-08-07T12:11:38;6.82;;;1.42;;
52878;SDS011;38747;53.140;6.498;2023-08-07T12:14:04;6.47;;;1.50;;
52878;SDS011;38747;53.140;6.498;2023-08-07T12:16:33;6.70;;;1.48;;
52878;SDS011;38747;53.140;6.498;2023-08-07T12:18:59;4.65;;;1.40;;
52878;SDS011;38747;53.140;6.498;2023-08-07T12:21:25;5.17;;;1.13;;
52878;SDS011;38747;53.140;6.498;2023-08-07T12:23:55;6.30;;;1.20;;
52878;SDS011;38747;53.140;6.498;2023-08-07T12:26:21;5.05;;;1.25;;
52878;SDS011;38747;53.140;6.498;2023-08-07T12:28:47;7.82;;;1.40;;
52878;SDS011;38747;53.140;6.498;2023-08-07T12:31:13;6.57;;;1.47;;
52878;SDS011;38747;53.140;6.498;2023-08-07T12:33:38;5.13;;;1.42;;
52878;SDS011;38747;53.140;6.498;2023-08-07T12:36:04;8.27;;;1.53;;
52878;SDS011;38747;53.140;6.498;2023-08-07T12:38:30;7.53;;;1.50;;
52878;SDS011;38747;53.140;6.498;2023-08-07T12:40:56;8.35;;;2.05;;
52878;SDS011;38747;53.140;6.498;2023-08-07T12:43:22;8.70;;;1.50;;
52878;SDS011;38747;53.140;6.498;2023-08-07T12:45:48;5.80;;;1.50;;
52878;SDS011;38747;53.140;6.498;2023-08-07T12:48:13;8.07;;;1.60;;
52878;SDS011;38747;53.140;6.498;2023-08-07T12:50:39;5.88;;;1.55;;
52878;SDS011;38747;53.140;6.498;2023-08-07T12:53:05;6.15;;;1.20;;
52878;SDS011;38747;53.140;6.498;2023-08-07T12:55:32;5.60;;;1.33;;
52878;SDS011;38747;53.140;6.498;2023-08-07T12:57:57;5.80;;;1.40;;
52878;SDS011;38747;53.140;6.498;2023-08-07T13:00:23;5.27;;;1.47;;
52878;SDS011;38747;53.140;6.498;2023-08-07T13:02:50;7.05;;;1.42;;
52878;SDS011;38747;53.140;6.498;2023-08-07T13:05:16;9.65;;;1.83;;
52878;SDS011;38747;53.140;6.498;2023-08-07T13:07:43;7.30;;;1.50;;
52878;SDS011;38747;53.140;6.498;2023-08-07T13:10:10;8.13;;;1.60;;
52878;SDS011;38747;53.140;6.498;2023-08-07T13:12:37;5.47;;;1.33;;
52878;SDS011;38747;53.140;6.498;2023-08-07T13:15:04;6.65;;;1.52;;
52878;SDS011;38747;53.140;6.498;2023-08-07T13:17:31;7.00;;;1.55;;
52878;SDS011;38747;53.140;6.498;2023-08-07T13:19:58;6.00;;;1.40;;
52878;SDS011;38747;53.140;6.498;2023-08-07T13:22:24;5.30;;;1.45;;
52878;SDS011;38747;53.140;6.498;2023-08-07T13:24:50;5.78;;;1.50;;
52878;SDS011;38747;53.140;6.498;2023-08-07T13:27:15;7.67;;;1.80;;
52878;SDS011;38747;53.140;6.498;2023-08-07T13:29:41;5.37;;;1.33;;
52878;SDS011;38747;53.140;6.498;2023-08-07T13:32:07;6.32;;;1.92;;
52878;SDS011;38747;53.140;6.498;2023-08-07T13:34:36;5.18;;;1.45;;
52878;SDS011;38747;53.140;6.498;2023-08-07T13:37:02;5.77;;;1.50;;
52878;SDS011;38747;53.140;6.498;2023-08-07T13:39:29;6.78;;;1.60;;
52878;SDS011;38747;53.140;6.498;2023-08-07T13:41:55;4.53;;;1.30;;
52878;SDS011;38747;53.140;6.498;2023-08-07T13:44:21;5.53;;;1.43;;
52878;SDS011;38747;53.140;6.498;2023-08-07T13:46:47;8.57;;;1.83;;
52878;SDS011;38747;53.140;6.498;2023-08-07T13:49:13;10.48;;;1.70;;
52878;SDS011;38747;53.140;6.498;2023-08-07T13:51:40;6.10;;;1.50;;
52878;SDS011;38747;53.140;6.498;2023-08-07T13:54:06;7.13;;;1.77;;
52878;SDS011;38747;53.140;6.498;2023-08-07T13:56:33;6.60;;;1.45;;
52878;SDS011;38747;53.140;6.498;2023-08-07T13:58:59;6.82;;;1.65;;
52878;SDS011;38747;53.140;6.498;2023-08-07T14:01:25;5.80;;;1.35;;
52878;SDS011;38747;53.140;6.498;2023-08-07T14:03:51;7.78;;;1.65;;
52878;SDS011;38747;53.140;6.498;2023-08-07T14:06:17;6.90;;;1.50;;
52878;SDS011;38747;53.140;6.498;2023-08-07T14:08:42;7.38;;;1.40;;
52878;SDS011;38747;53.140;6.498;2023-08-07T14:11:08;8.43;;;1.47;;
52878;SDS011;38747;53.140;6.498;2023-08-07T14:13:34;7.25;;;1.77;;
52878;SDS011;38747;53.140;6.498;2023-08-07T14:15:59;6.97;;;1.60;;
52878;SDS011;38747;53.140;6.498;2023-08-07T14:18:25;9.17;;;1.60;;
52878;SDS011;38747;53.140;6.498;2023-08-07T14:20:52;5.00;;;1.50;;
52878;SDS011;38747;53.140;6.498;2023-08-07T14:23:17;7.70;;;1.40;;
52878;SDS011;38747;53.140;6.498;2023-08-07T14:25:43;6.07;;;1.63;;
52878;SDS011;38747;53.140;6.498;2023-08-07T14:28:10;6.18;;;1.30;;
52878;SDS011;38747;53.140;6.498;2023-08-07T14:30:36;5.72;;;1.63;;
52878;SDS011;38747;53.140;6.498;2023-08-07T14:33:01;9.37;;;1.60;;
52878;SDS011;38747;53.140;6.498;2023-08-07T14:35:27;6.55;;;1.50;;
52878;SDS011;38747;53.140;6.498;2023-08-07T14:37:52;6.23;;;1.60;;
52878;SDS011;38747;53.140;6.498;2023-08-07T14:40:18;6.55;;;1.10;;
52878;SDS011;38747;53.140;6.498;2023-08-07T14:42:44;6.40;;;1.33;;
52878;SDS011;38747;53.140;6.498;2023-08-07T14:45:10;5.25;;;1.15;;
52878;SDS011;38747;53.140;6.498;2023-08-07T14:47:36;6.70;;;1.40;;
52878;SDS011;38747;53.140;6.498;2023-08-07T14:50:02;6.53;;;1.30;;
52878;SDS011;38747;53.140;6.498;2023-08-07T14:52:27;5.35;;;1.33;;
52878;SDS011;38747;53.140;6.498;2023-08-07T14:54:53;6.37;;;1.20;;
52878;SDS011;38747;53.140;6.498;2023-08-07T14:57:22;5.35;;;1.20;;
52878;SDS011;38747;53.140;6.498;2023-08-07T14:59:48;4.82;;;1.30;;